createdAt,value
2022-10-10T00:00:23.516Z,10.86
2022-10-10T00:01:23.531Z,10.86
2022-10-10T00:02:23.511Z,10.82
2022-10-10T00:03:23.495Z,10.89
2022-10-10T00:04:23.466Z,10.89
2022-10-10T00:05:23.454Z,10.79
2022-10-10T00:06:23.451Z,10.79
2022-10-10T00:07:23.433Z,10.79
2022-10-10T00:08:23.442Z,10.84
2022-10-10T00:09:23.422Z,10.81
2022-10-10T00:10:23.411Z,10.84
2022-10-10T00:11:23.417Z,10.81
2022-10-10T00:12:23.388Z,10.76
2022-10-10T00:13:23.378Z,10.86
2022-10-10T00:14:23.366Z,10.72
2022-10-10T00:15:23.347Z,10.72
2022-10-10T00:16:23.341Z,10.68
2022-10-10T00:17:23.333Z,10.92
2022-10-10T00:18:23.321Z,10.71
2022-10-10T00:19:23.310Z,10.75
2022-10-10T00:20:23.310Z,10.81
2022-10-10T00:21:23.279Z,10.76
2022-10-10T00:22:23.269Z,10.79
2022-10-10T00:23:23.258Z,10.78
2022-10-10T00:24:23.281Z,10.74
2022-10-10T00:25:23.255Z,10.71
2022-10-10T00:26:23.230Z,10.61
2022-10-10T00:27:23.237Z,10.57
2022-10-10T00:28:23.326Z,10.57
2022-10-10T00:29:23.194Z,10.61
2022-10-10T00:30:23.192Z,10.57
2022-10-10T00:31:23.189Z,10.51
2022-10-10T00:32:23.168Z,10.57
2022-10-10T00:33:23.168Z,10.56
2022-10-10T00:34:23.134Z,10.60
2022-10-10T00:35:23.129Z,10.74
2022-10-10T00:36:23.134Z,10.71
2022-10-10T00:37:23.105Z,10.57
2022-10-10T00:38:23.099Z,10.64
2022-10-10T00:39:23.089Z,10.56
2022-10-10T00:40:23.086Z,10.44
2022-10-10T00:41:23.089Z,10.40
2022-10-10T00:42:23.056Z,10.48
2022-10-10T00:43:23.053Z,10.35
2022-10-10T00:44:23.053Z,10.41
2022-10-10T00:45:23.027Z,10.51
2022-10-10T00:46:23.017Z,10.48
2022-10-10T00:47:23.018Z,10.40
2022-10-10T00:48:22.991Z,10.34
2022-10-10T00:49:22.971Z,10.42
2022-10-10T00:50:22.971Z,10.42
2022-10-10T00:51:22.964Z,10.40
2022-10-10T00:52:22.960Z,10.48
2022-10-10T00:53:22.942Z,10.49
2022-10-10T00:54:22.934Z,10.41
2022-10-10T00:55:22.939Z,10.37
2022-10-10T00:56:22.898Z,10.53
2022-10-10T00:57:22.888Z,10.42
2022-10-10T00:58:22.890Z,10.49
2022-10-10T00:59:22.886Z,10.46
2022-10-10T01:00:22.862Z,10.44
2022-10-10T01:01:22.912Z,10.61
2022-10-10T01:02:22.837Z,10.51
2022-10-10T01:03:22.826Z,10.35
2022-10-10T01:04:22.813Z,10.44
2022-10-10T01:05:22.812Z,10.40
2022-10-10T01:06:22.795Z,10.31
2022-10-10T01:07:22.772Z,10.30
2022-10-10T01:08:22.765Z,10.25
2022-10-10T01:09:22.756Z,10.17
2022-10-10T01:10:22.776Z,10.19
2022-10-10T01:11:22.749Z,10.17
2022-10-10T01:12:22.727Z,10.28
2022-10-10T01:13:22.717Z,10.23
2022-10-10T01:14:22.704Z,10.34
2022-10-10T01:15:22.730Z,10.41
2022-10-10T01:16:22.684Z,10.44
2022-10-10T01:17:22.664Z,10.34
2022-10-10T01:18:22.670Z,10.38
2022-10-10T01:19:22.649Z,10.20
2022-10-10T01:20:22.646Z,10.41
2022-10-10T01:21:22.651Z,10.41
2022-10-10T01:22:22.614Z,10.41
2022-10-10T01:23:22.606Z,10.37
2022-10-10T01:24:22.600Z,10.40
2022-10-10T01:25:22.577Z,10.33
2022-10-10T01:26:22.575Z,10.28
2022-10-10T01:27:24.590Z,10.19
2022-10-10T01:28:23.573Z,10.20
2022-10-10T01:29:22.533Z,10.16
2022-10-10T01:30:22.531Z,10.01
2022-10-10T01:31:22.532Z,10.02
2022-10-10T01:32:22.504Z,10.05
2022-10-10T01:33:22.506Z,10.01
2022-10-10T01:34:22.522Z,9.99
2022-10-10T01:35:22.476Z,10.07
2022-10-10T01:36:22.466Z,10.10
2022-10-10T01:37:22.448Z,10.13
2022-10-10T01:38:22.437Z,10.16
2022-10-10T01:39:22.419Z,10.23
2022-10-10T01:40:22.431Z,10.20
2022-10-10T01:41:22.414Z,10.30
2022-10-10T01:42:22.394Z,10.40
2022-10-10T01:43:22.385Z,10.26
2022-10-10T01:44:22.391Z,10.25
2022-10-10T01:45:22.368Z,10.22
2022-10-10T01:46:22.353Z,10.23
2022-10-10T01:47:22.350Z,10.16
2022-10-10T01:48:22.325Z,10.02
2022-10-10T01:49:22.325Z,10.05
2022-10-10T01:50:22.313Z,10.04
2022-10-10T01:51:22.296Z,10.09
2022-10-10T01:52:22.278Z,10.05
2022-10-10T01:53:22.266Z,10.26
2022-10-10T01:54:22.260Z,10.19
2022-10-10T01:55:22.274Z,10.20
2022-10-10T01:56:22.233Z,10.22
2022-10-10T01:57:22.256Z,10.15
2022-10-10T01:58:22.213Z,10.19
2022-10-10T01:59:22.208Z,10.17
2022-10-10T02:00:22.226Z,10.33
2022-10-10T02:01:22.206Z,10.28
2022-10-10T02:02:22.196Z,10.30
2022-10-10T02:03:22.183Z,10.28
2022-10-10T02:04:22.155Z,10.30
2022-10-10T02:05:22.141Z,10.28
2022-10-10T02:06:22.155Z,10.17
2022-10-10T02:07:22.115Z,10.02
2022-10-10T02:08:22.131Z,10.09
2022-10-10T02:09:22.099Z,10.02
2022-10-10T02:10:22.082Z,10.04
2022-10-10T02:11:22.079Z,10.02
2022-10-10T02:12:22.082Z,10.17
2022-10-10T02:13:22.078Z,10.17
2022-10-10T02:14:22.041Z,10.16
2022-10-10T02:15:22.029Z,10.20
2022-10-10T02:16:22.011Z,10.22
2022-10-10T02:17:21.999Z,10.16
2022-10-10T02:18:22.026Z,10.17
2022-10-10T02:19:21.994Z,10.09
2022-10-10T02:20:21.973Z,10.01
2022-10-10T02:21:21.964Z,9.99
2022-10-10T02:22:21.951Z,9.86
2022-10-10T02:23:21.944Z,9.87
2022-10-10T02:24:21.951Z,9.84
2022-10-10T02:25:21.913Z,9.79
2022-10-10T02:26:21.903Z,9.73
2022-10-10T02:27:21.895Z,9.79
2022-10-10T02:28:21.910Z,9.80
2022-10-10T02:29:21.900Z,9.68
2022-10-10T02:30:21.859Z,9.80
2022-10-10T02:31:21.846Z,9.80
2022-10-10T02:32:21.840Z,9.86
2022-10-10T02:33:21.827Z,9.84
2022-10-10T02:34:21.839Z,9.87
2022-10-10T02:35:21.841Z,9.98
2022-10-10T02:36:21.801Z,9.98
2022-10-10T02:37:21.780Z,10.02
2022-10-10T02:38:21.770Z,10.01
2022-10-10T02:39:21.786Z,10.07
2022-10-10T02:40:21.781Z,9.94
2022-10-10T02:41:21.737Z,10.02
2022-10-10T02:42:21.728Z,9.97
2022-10-10T02:43:21.718Z,10.04
2022-10-10T02:44:21.706Z,9.97
2022-10-10T02:45:21.722Z,10.04
2022-10-10T02:46:21.686Z,10.04
2022-10-10T02:47:21.703Z,10.07
2022-10-10T02:48:21.662Z,10.02
2022-10-10T02:49:21.646Z,9.99
2022-10-10T02:50:21.637Z,10.02
2022-10-10T02:51:22.114Z,9.95
2022-10-10T02:52:21.625Z,9.82
2022-10-10T02:53:21.637Z,9.83
2022-10-10T02:54:21.591Z,9.73
2022-10-10T02:55:21.584Z,9.82
2022-10-10T02:56:21.597Z,9.77
2022-10-10T02:57:21.564Z,9.79
2022-10-10T02:58:21.611Z,9.79
2022-10-10T02:59:21.533Z,9.66
2022-10-10T03:00:21.524Z,9.64
2022-10-10T03:01:21.577Z,9.64
2022-10-10T03:02:21.509Z,9.64
2022-10-10T03:03:21.489Z,9.61
2022-10-10T03:04:21.504Z,9.56
2022-10-10T03:05:21.469Z,9.62
2022-10-10T03:06:21.462Z,9.56
2022-10-10T03:07:21.464Z,9.59
2022-10-10T03:08:21.504Z,9.58
2022-10-10T03:09:21.454Z,9.65
2022-10-10T03:10:21.422Z,9.69
2022-10-10T03:11:21.404Z,9.77
2022-10-10T03:12:21.603Z,9.79
2022-10-10T03:13:36.069Z,9.83
2022-10-10T03:14:21.399Z,9.91
2022-10-10T03:15:21.356Z,9.83
2022-10-10T03:16:21.348Z,9.79
2022-10-10T03:18:51.431Z,9.73
2022-10-10T03:19:30.344Z,9.55
2022-10-10T03:20:30.281Z,9.59
2022-10-10T03:21:30.270Z,9.59
2022-10-10T03:22:30.273Z,9.54
2022-10-10T03:23:30.275Z,9.68
2022-10-10T03:24:30.311Z,9.65
2022-10-10T03:25:30.225Z,9.66
2022-10-10T03:26:30.228Z,9.65
2022-10-10T03:27:30.272Z,9.65
2022-10-10T03:28:30.250Z,9.62
2022-10-10T03:29:30.206Z,9.62
2022-10-10T03:30:30.173Z,9.66
2022-10-10T03:31:30.165Z,9.69
2022-10-10T03:32:30.148Z,9.76
2022-10-10T03:33:30.156Z,9.82
2022-10-10T03:34:30.132Z,9.82
2022-10-10T03:35:30.116Z,9.73
2022-10-10T03:36:30.105Z,9.83
2022-10-10T03:37:30.121Z,9.83
2022-10-10T03:38:30.102Z,9.84
2022-10-10T03:39:30.082Z,9.89
2022-10-10T03:40:30.102Z,9.92
2022-10-10T03:41:30.055Z,9.79
2022-10-10T03:42:30.038Z,9.80
2022-10-10T03:43:30.038Z,9.87
2022-10-10T03:44:30.048Z,9.87
2022-10-10T03:45:30.010Z,9.79
2022-10-10T03:46:29.989Z,9.74
2022-10-10T03:47:29.983Z,9.68
2022-10-10T03:48:29.976Z,9.62
2022-10-10T03:49:29.986Z,9.54
2022-10-10T03:50:29.958Z,9.61
2022-10-10T03:51:29.936Z,9.46
2022-10-10T03:52:29.934Z,9.47
2022-10-10T03:53:29.926Z,9.41
2022-10-10T03:54:29.953Z,9.31
2022-10-10T03:55:29.893Z,9.25
2022-10-10T03:56:29.892Z,9.43
2022-10-10T03:57:29.870Z,9.47
2022-10-10T03:58:29.863Z,9.41
2022-10-10T03:59:29.867Z,9.40
2022-10-10T04:00:29.875Z,9.46
2022-10-10T04:01:29.885Z,9.37
2022-10-10T04:02:29.817Z,9.29
2022-10-10T04:03:29.805Z,9.34
2022-10-10T04:04:29.802Z,9.44
2022-10-10T04:05:29.824Z,9.40
2022-10-10T04:06:29.778Z,9.41
2022-10-10T04:07:29.771Z,9.44
2022-10-10T04:08:29.748Z,9.43
2022-10-10T04:09:29.741Z,9.46
2022-10-10T04:10:29.751Z,9.44
2022-10-10T04:11:29.758Z,9.48
2022-10-10T04:12:29.713Z,9.50
2022-10-10T04:13:29.703Z,9.46
2022-10-10T04:14:29.689Z,9.44
2022-10-10T04:15:29.695Z,9.48
2022-10-10T04:16:29.668Z,9.44
2022-10-10T04:17:29.658Z,9.47
2022-10-10T04:18:29.647Z,9.41
2022-10-10T04:19:29.635Z,9.43
2022-10-10T04:20:29.650Z,9.41
2022-10-10T04:21:29.606Z,9.39
2022-10-10T04:22:29.627Z,9.44
2022-10-10T04:23:29.671Z,9.40
2022-10-10T04:24:29.575Z,9.47
2022-10-10T04:25:29.561Z,9.44
2022-10-10T04:26:29.602Z,9.50
2022-10-10T04:27:29.540Z,9.48
2022-10-10T04:28:29.546Z,9.41
2022-10-10T04:30:26.881Z,9.50
2022-10-10T04:31:26.841Z,9.61
2022-10-10T04:32:26.836Z,9.55
2022-10-10T04:33:26.817Z,9.66
2022-10-10T04:34:26.807Z,9.65
2022-10-10T04:35:26.797Z,9.77
2022-10-10T04:36:26.830Z,9.72
2022-10-10T04:37:26.773Z,9.72
2022-10-10T04:38:26.758Z,9.79
2022-10-10T04:39:26.778Z,9.83
2022-10-10T04:40:27.147Z,9.87
2022-10-10T04:41:26.738Z,9.72
2022-10-10T04:42:26.765Z,9.66
2022-10-10T04:43:26.743Z,9.66
2022-10-10T04:44:26.702Z,9.51
2022-10-10T04:45:26.761Z,9.58
2022-10-10T04:46:26.676Z,9.59
2022-10-10T04:47:26.689Z,9.61
2022-10-10T04:48:26.694Z,9.48
2022-10-10T04:49:26.644Z,9.68
2022-10-10T04:50:26.641Z,9.68
2022-10-10T04:51:26.630Z,9.79
2022-10-10T04:52:26.625Z,9.77
2022-10-10T04:53:26.597Z,9.76
2022-10-10T04:54:26.634Z,9.83
2022-10-10T04:55:26.580Z,9.80
2022-10-10T04:56:26.575Z,9.73
2022-10-10T04:57:26.564Z,9.62
2022-10-10T04:58:26.576Z,9.51
2022-10-10T04:59:26.541Z,9.56
2022-10-10T05:00:26.552Z,9.39
2022-10-10T05:01:26.609Z,9.34
2022-10-10T05:02:26.507Z,9.21
2022-10-10T05:03:26.524Z,9.19
2022-10-10T05:04:26.487Z,9.04
2022-10-10T05:05:26.502Z,9.06
2022-10-10T05:06:26.464Z,8.94
2022-10-10T05:07:26.455Z,8.95
2022-10-10T05:08:26.462Z,8.99
2022-10-10T05:09:26.431Z,9.02
2022-10-10T05:10:26.426Z,9.02
2022-10-10T05:11:26.443Z,9.04
2022-10-10T05:12:26.398Z,9.06
2022-10-10T05:13:26.388Z,9.18
2022-10-10T05:14:26.396Z,9.22
2022-10-10T05:15:26.372Z,9.26
2022-10-10T05:16:26.358Z,9.31
2022-10-10T05:17:26.360Z,9.32
2022-10-10T05:18:26.334Z,9.32
2022-10-10T05:19:26.330Z,9.23
2022-10-10T05:20:26.343Z,9.21
2022-10-10T05:21:26.302Z,9.06
2022-10-10T05:22:26.296Z,9.10
2022-10-10T05:23:26.284Z,9.04
2022-10-10T05:24:26.261Z,9.11
2022-10-10T05:25:26.254Z,9.10
2022-10-10T05:26:26.264Z,9.11
2022-10-10T05:27:26.230Z,9.28
2022-10-10T05:28:26.263Z,9.25
2022-10-10T05:29:26.207Z,9.26
2022-10-10T05:30:26.222Z,9.18
2022-10-10T05:31:26.217Z,9.06
2022-10-10T05:32:26.182Z,9.02
2022-10-10T05:33:26.160Z,8.92
2022-10-10T05:34:26.157Z,8.78
2022-10-10T05:35:26.148Z,8.78
2022-10-10T05:36:26.139Z,8.76
2022-10-10T05:37:26.151Z,8.76
2022-10-10T05:38:26.110Z,8.76
2022-10-10T05:39:26.111Z,8.70
2022-10-10T05:40:26.105Z,8.69
2022-10-10T05:41:26.081Z,8.84
2022-10-10T05:42:26.091Z,8.70
2022-10-10T05:43:26.060Z,8.78
2022-10-10T05:44:26.054Z,8.74
2022-10-10T05:45:26.034Z,8.88
2022-10-10T05:46:26.093Z,8.97
2022-10-10T05:47:28.053Z,9.04
2022-10-10T05:48:26.014Z,9.00
2022-10-10T05:49:26.006Z,9.08
2022-10-10T05:50:25.993Z,9.06
2022-10-10T05:51:25.968Z,9.04
2022-10-10T05:52:25.973Z,9.11
2022-10-10T05:53:25.986Z,9.08
2022-10-10T05:54:25.940Z,9.02
2022-10-10T05:55:25.929Z,9.06
2022-10-10T05:56:25.918Z,9.02
2022-10-10T05:57:25.906Z,9.06
2022-10-10T05:58:25.924Z,9.00
2022-10-10T05:59:25.893Z,8.94
2022-10-10T06:00:25.878Z,8.97
2022-10-10T06:01:26.559Z,8.94
2022-10-10T06:02:25.951Z,9.08
2022-10-10T06:03:25.864Z,9.06
2022-10-10T06:04:25.833Z,9.06
2022-10-10T06:05:25.811Z,9.03
2022-10-10T06:06:25.807Z,9.02
2022-10-10T06:07:36.133Z,9.18
2022-10-10T06:08:26.811Z,9.31
2022-10-10T06:09:25.769Z,9.29
2022-10-10T06:10:25.758Z,9.40
2022-10-10T06:11:25.746Z,9.37
2022-10-10T06:12:25.742Z,9.43
2022-10-10T06:13:25.772Z,9.41
2022-10-10T06:14:25.714Z,9.39
2022-10-10T06:15:25.714Z,9.43
2022-10-10T06:16:25.695Z,9.47
2022-10-10T06:17:25.682Z,9.58
2022-10-10T06:18:25.699Z,9.55
2022-10-10T06:19:25.697Z,9.59
2022-10-10T06:20:25.657Z,9.61
2022-10-10T06:21:25.645Z,9.62
2022-10-10T06:22:25.627Z,9.69
2022-10-10T06:23:25.615Z,9.73
2022-10-10T06:24:25.612Z,9.64
2022-10-10T06:25:39.381Z,9.74
2022-10-10T06:26:26.588Z,9.80
2022-10-10T06:27:25.584Z,9.76
2022-10-10T06:28:25.636Z,9.64
2022-10-10T06:29:25.615Z,9.65
2022-10-10T06:30:25.556Z,9.76
2022-10-10T06:31:25.569Z,9.74
2022-10-10T06:32:25.554Z,9.76
2022-10-10T06:33:25.509Z,9.73
2022-10-10T06:34:25.562Z,9.76
2022-10-10T06:35:25.502Z,9.73
2022-10-10T06:36:25.482Z,9.79
2022-10-10T06:37:25.484Z,9.84
2022-10-10T06:38:25.448Z,9.84
2022-10-10T06:39:25.441Z,9.87
2022-10-10T06:40:25.436Z,9.77
2022-10-10T06:41:25.433Z,9.76
2022-10-10T06:42:25.406Z,9.64
2022-10-10T06:43:25.432Z,9.66
2022-10-10T06:44:25.403Z,9.65
2022-10-10T06:45:25.383Z,9.65
2022-10-10T06:46:25.368Z,9.68
2022-10-10T06:47:25.373Z,9.55
2022-10-10T06:48:25.380Z,9.55
2022-10-10T06:49:25.344Z,9.58
2022-10-10T06:50:25.343Z,9.64
2022-10-10T06:51:25.316Z,9.66
2022-10-10T06:52:25.300Z,9.68
2022-10-10T06:53:25.294Z,9.77
2022-10-10T06:54:25.310Z,9.84
2022-10-10T06:55:25.274Z,9.84
2022-10-10T06:56:27.819Z,9.84
2022-10-10T06:57:25.285Z,9.86
2022-10-10T06:58:25.248Z,9.86
2022-10-10T06:59:25.263Z,9.98
2022-10-10T07:00:25.229Z,10.05
2022-10-10T07:01:25.300Z,10.09
2022-10-10T07:02:25.193Z,10.01
2022-10-10T07:03:25.244Z,10.01
2022-10-10T07:04:25.206Z,9.95
2022-10-10T07:05:25.168Z,9.80
2022-10-10T07:06:25.271Z,9.79
2022-10-10T07:07:25.138Z,9.83
2022-10-10T07:08:25.150Z,9.87
2022-10-10T07:09:25.165Z,9.92
2022-10-10T07:10:25.165Z,9.86
2022-10-10T07:11:25.093Z,9.95
2022-10-10T07:12:29.033Z,10.05
2022-10-10T07:13:25.099Z,9.99
2022-10-10T07:14:25.074Z,10.13
2022-10-10T07:15:25.056Z,10.17
2022-10-10T07:16:25.040Z,10.16
2022-10-10T07:17:25.050Z,10.26
2022-10-10T07:18:25.014Z,10.25
2022-10-10T07:19:25.019Z,10.37
2022-10-10T07:20:25.056Z,10.37
2022-10-10T07:21:24.989Z,10.42
2022-10-10T07:22:25.006Z,10.28
2022-10-10T07:23:25.011Z,10.20
2022-10-10T07:24:25.579Z,10.04
2022-10-10T07:25:24.969Z,10.09
2022-10-10T07:26:24.937Z,9.95
2022-10-10T07:27:25.026Z,10.01
2022-10-10T07:28:24.962Z,10.02
2022-10-10T07:29:24.908Z,10.07
2022-10-10T07:30:24.905Z,10.28
2022-10-10T07:31:24.875Z,10.30
2022-10-10T07:32:24.866Z,10.28
2022-10-10T07:33:24.861Z,10.37
2022-10-10T07:34:24.847Z,10.40
2022-10-10T07:35:24.849Z,10.44
2022-10-10T07:36:24.823Z,10.57
2022-10-10T07:37:24.820Z,10.69
2022-10-10T07:38:24.828Z,10.84
2022-10-10T07:39:24.816Z,10.79
2022-10-10T07:40:24.812Z,10.90
2022-10-10T07:41:24.777Z,11.10
2022-10-10T07:42:24.777Z,11.05
2022-10-10T07:43:24.770Z,10.99
2022-10-10T07:44:24.762Z,11.17
2022-10-10T07:45:24.737Z,11.15
2022-10-10T07:46:24.715Z,11.19
2022-10-10T07:47:24.705Z,11.15
2022-10-10T07:48:24.695Z,11.08
2022-10-10T07:49:24.694Z,11.11
2022-10-10T07:50:24.696Z,11.15
2022-10-10T07:51:24.662Z,11.22
2022-10-10T07:52:24.656Z,11.33
2022-10-10T07:53:24.654Z,11.41
2022-10-10T07:54:24.653Z,11.43
2022-10-10T07:55:24.647Z,11.44
2022-10-10T07:56:24.614Z,11.44
2022-10-10T07:57:24.600Z,11.44
2022-10-10T07:58:24.606Z,11.43
2022-10-10T07:59:24.576Z,11.43
2022-10-10T08:00:24.775Z,11.36
2022-10-10T08:01:24.644Z,11.30
2022-10-10T08:02:24.558Z,11.33
2022-10-10T08:03:24.552Z,11.33
2022-10-10T08:04:24.528Z,11.37
2022-10-10T08:05:24.533Z,11.37
2022-10-10T08:06:24.501Z,11.43
2022-10-10T08:07:24.496Z,11.52
2022-10-10T08:08:24.493Z,11.45
2022-10-10T08:09:24.478Z,11.52
2022-10-10T08:10:24.489Z,11.50
2022-10-10T08:11:24.454Z,11.57
2022-10-10T08:12:24.471Z,11.60
2022-10-10T08:13:24.424Z,11.72
2022-10-10T08:14:24.414Z,11.80
2022-10-10T08:15:24.920Z,11.99
2022-10-10T08:16:24.394Z,12.04
2022-10-10T08:17:24.389Z,12.15
2022-10-10T08:18:24.393Z,12.29
2022-10-10T08:19:24.370Z,12.36
2022-10-10T08:20:24.371Z,12.35
2022-10-10T08:21:24.341Z,12.35
2022-10-10T08:22:24.342Z,12.28
2022-10-10T08:23:24.326Z,12.09
2022-10-10T08:24:24.317Z,12.12
2022-10-10T08:25:24.302Z,12.17
2022-10-10T08:26:24.318Z,12.35
2022-10-10T08:27:24.306Z,12.45
2022-10-10T08:28:24.325Z,12.47
2022-10-10T08:29:24.273Z,12.85
2022-10-10T08:30:24.248Z,13.46
2022-10-10T08:31:24.241Z,14.36
2022-10-10T08:32:24.237Z,15.55
2022-10-10T08:33:24.231Z,16.96
2022-10-10T08:34:24.209Z,18.01
2022-10-10T08:35:24.192Z,18.88
2022-10-10T08:36:24.194Z,19.71
2022-10-10T08:37:29.303Z,20.56
2022-10-10T08:38:24.162Z,21.33
2022-10-10T08:39:24.169Z,22.17
2022-10-10T08:40:24.148Z,22.55
2022-10-10T08:41:24.133Z,23.08
2022-10-10T08:42:24.138Z,23.76
2022-10-10T08:43:24.116Z,24.50
2022-10-10T08:44:24.114Z,25.16
2022-10-10T08:45:24.084Z,25.43
2022-10-10T08:46:24.070Z,25.53
2022-10-10T08:47:24.069Z,25.65
2022-10-10T08:48:24.059Z,26.10
2022-10-10T08:49:24.050Z,26.52
2022-10-10T08:50:24.041Z,26.40
2022-10-10T08:51:24.016Z,25.98
2022-10-10T08:52:24.012Z,25.18
2022-10-10T08:53:24.002Z,24.38
2022-10-10T08:54:23.998Z,23.31
2022-10-10T08:55:24.005Z,22.50
2022-10-10T08:56:23.982Z,21.98
2022-10-10T08:57:23.974Z,21.45
2022-10-10T08:58:23.978Z,20.88
2022-10-10T08:59:23.959Z,20.37
2022-10-10T09:00:23.935Z,19.86
2022-10-10T09:01:27.901Z,19.34
2022-10-10T09:02:26.337Z,19.24
2022-10-10T09:03:24.898Z,19.31
2022-10-10T09:04:23.885Z,19.21
2022-10-10T09:05:23.871Z,19.54
2022-10-10T09:06:23.862Z,19.92
2022-10-10T09:07:23.874Z,20.04
2022-10-10T09:08:26.650Z,20.09
2022-10-10T09:09:23.829Z,19.86
2022-10-10T09:10:23.815Z,19.58
2022-10-10T09:11:23.823Z,19.26
2022-10-10T09:12:23.808Z,18.90
2022-10-10T09:13:23.787Z,18.52
2022-10-10T09:14:23.911Z,18.29
2022-10-10T09:15:23.762Z,18.13
2022-10-10T09:16:23.773Z,18.01
2022-10-10T09:17:23.776Z,17.56
2022-10-10T09:18:23.747Z,17.14
2022-10-10T09:19:23.729Z,17.09
2022-10-10T09:20:23.708Z,16.93
2022-10-10T09:21:23.706Z,16.72
2022-10-10T09:22:23.684Z,16.65
2022-10-10T09:23:23.682Z,16.46
2022-10-10T09:24:24.192Z,16.39
2022-10-10T09:25:23.683Z,16.29
2022-10-10T09:26:23.655Z,16.05
2022-10-10T09:27:23.637Z,15.82
2022-10-10T09:28:23.695Z,15.90
2022-10-10T09:29:23.668Z,15.82
2022-10-10T09:30:23.630Z,15.92
2022-10-10T09:31:23.593Z,15.80
2022-10-10T09:32:23.586Z,15.79
2022-10-10T09:33:23.565Z,15.84
2022-10-10T09:34:23.556Z,15.83
2022-10-10T09:35:23.583Z,15.90
2022-10-10T09:36:23.537Z,16.16
2022-10-10T09:37:45.329Z,16.72
2022-10-10T09:38:24.516Z,17.51
2022-10-10T09:39:23.510Z,18.58
2022-10-10T09:40:23.498Z,19.71
2022-10-10T09:41:23.511Z,20.81
2022-10-10T09:42:23.473Z,21.95
2022-10-10T09:43:23.463Z,22.36
2022-10-10T09:44:23.465Z,22.55
2022-10-10T09:45:23.441Z,22.45
2022-10-10T09:46:23.482Z,21.92
2022-10-10T09:47:23.434Z,21.48
2022-10-10T09:48:23.421Z,21.27
2022-10-10T09:49:23.402Z,21.00
2022-10-10T09:50:23.384Z,20.72
2022-10-10T09:51:23.401Z,20.18
2022-10-10T09:52:23.374Z,19.51
2022-10-10T09:53:23.361Z,19.22
2022-10-10T09:54:23.349Z,18.93
2022-10-10T09:55:23.342Z,18.56
2022-10-10T09:56:23.329Z,18.45
2022-10-10T09:57:23.322Z,18.33
2022-10-10T09:58:23.301Z,18.08
2022-10-10T09:59:23.299Z,17.98
2022-10-10T10:00:23.288Z,17.79
2022-10-10T10:01:23.331Z,17.63
2022-10-10T10:02:23.299Z,17.49
2022-10-10T10:03:23.248Z,17.39
2022-10-10T10:04:30.402Z,17.20
2022-10-10T10:05:24.225Z,16.99
2022-10-10T10:06:23.219Z,16.91
2022-10-10T10:07:23.222Z,16.69
2022-10-10T10:08:23.199Z,16.71
2022-10-10T10:09:23.192Z,16.50
2022-10-10T10:10:23.190Z,16.42
2022-10-10T10:11:23.170Z,16.32
2022-10-10T10:12:23.164Z,16.21
2022-10-10T10:13:23.156Z,16.32
2022-10-10T10:14:23.136Z,16.35
2022-10-10T10:15:23.172Z,16.15
2022-10-10T10:16:23.178Z,16.15
2022-10-10T10:17:23.122Z,16.15
2022-10-10T10:18:23.103Z,16.16
2022-10-10T10:19:23.083Z,16.33
2022-10-10T10:20:23.065Z,16.51
2022-10-10T10:21:23.049Z,16.50
2022-10-10T10:22:26.383Z,16.66
2022-10-10T10:23:23.050Z,16.76
2022-10-10T10:24:23.021Z,16.66
2022-10-10T10:25:26.435Z,16.66
2022-10-10T10:26:23.007Z,16.57
2022-10-10T10:27:22.990Z,16.69
2022-10-10T10:28:23.036Z,16.83
2022-10-10T10:29:22.991Z,16.96
2022-10-10T10:30:30.671Z,16.86
2022-10-10T10:31:22.955Z,16.79
2022-10-10T10:32:22.932Z,16.71
2022-10-10T10:33:22.963Z,16.71
2022-10-10T10:34:22.937Z,16.76
2022-10-10T10:35:22.909Z,16.72
2022-10-10T10:36:22.900Z,16.69
2022-10-10T10:37:22.886Z,16.71
2022-10-10T10:38:22.874Z,16.64
2022-10-10T10:39:22.878Z,16.46
2022-10-10T10:40:22.856Z,16.35
2022-10-10T10:41:22.837Z,16.28
2022-10-10T10:42:22.840Z,16.36
2022-10-10T10:43:22.818Z,16.26
2022-10-10T10:44:22.818Z,16.31
2022-10-10T10:45:22.815Z,16.29
2022-10-10T10:46:22.806Z,16.32
2022-10-10T10:47:22.779Z,16.41
2022-10-10T10:48:22.905Z,16.54
2022-10-10T10:49:25.497Z,16.64
2022-10-10T10:50:22.800Z,16.78
2022-10-10T10:51:22.735Z,16.90
2022-10-10T10:52:22.720Z,16.99
2022-10-10T10:53:22.707Z,16.96
2022-10-10T10:54:22.695Z,16.89
2022-10-10T10:55:22.700Z,16.72
2022-10-10T10:56:22.800Z,16.60
2022-10-10T10:57:32.978Z,16.68
2022-10-10T11:00:16.689Z,16.69
2022-10-10T11:01:21.120Z,16.56
2022-10-10T11:01:44.938Z,16.46
2022-10-10T11:02:37.205Z,16.35
2022-10-10T11:05:21.125Z,16.43
2022-10-10T11:05:24.400Z,16.43
2022-10-10T11:05:31.102Z,16.41
2022-10-10T11:06:23.723Z,16.42
2022-10-10T11:07:22.719Z,16.49
2022-10-10T11:08:22.568Z,16.53
2022-10-10T11:09:48.387Z,16.54
2022-10-10T11:10:23.531Z,16.68
2022-10-10T11:11:22.563Z,16.79
2022-10-10T11:12:22.518Z,16.78
2022-10-10T11:13:22.523Z,16.76
2022-10-10T11:14:22.501Z,16.83
2022-10-10T11:15:22.494Z,16.89
2022-10-10T11:16:46.812Z,16.75
2022-10-10T11:17:23.450Z,16.76
2022-10-10T11:18:22.436Z,16.84
2022-10-10T11:19:22.439Z,16.79
2022-10-10T11:20:23.231Z,16.99
2022-10-10T11:21:22.408Z,16.90
2022-10-10T11:22:22.455Z,16.96
2022-10-10T11:23:22.395Z,16.91
2022-10-10T11:24:22.366Z,16.97
2022-10-10T11:25:22.354Z,17.04
2022-10-10T11:26:22.341Z,17.06
2022-10-10T11:27:22.362Z,16.96
2022-10-10T11:28:22.420Z,16.79
2022-10-10T11:29:22.320Z,16.84
2022-10-10T11:30:22.300Z,16.94
2022-10-10T11:31:22.289Z,16.96
2022-10-10T11:32:22.311Z,16.93
2022-10-10T11:33:22.265Z,16.97
2022-10-10T11:34:22.261Z,17.04
2022-10-10T11:35:22.250Z,17.06
2022-10-10T11:36:22.259Z,17.06
2022-10-10T11:37:22.251Z,17.08
2022-10-10T11:38:22.275Z,17.12
2022-10-10T11:39:22.235Z,17.23
2022-10-10T11:40:22.228Z,17.41
2022-10-10T11:41:22.192Z,17.39
2022-10-10T11:42:22.176Z,17.49
2022-10-10T11:43:22.176Z,17.56
2022-10-10T11:44:22.151Z,17.52
2022-10-10T11:45:22.165Z,17.52
2022-10-10T11:46:22.162Z,17.56
2022-10-10T11:47:22.139Z,17.56
2022-10-10T11:48:22.145Z,17.52
2022-10-10T11:49:22.092Z,17.49
2022-10-10T11:50:22.076Z,17.52
2022-10-10T11:51:22.711Z,17.54
2022-10-10T11:52:33.552Z,17.44
2022-10-10T11:53:23.072Z,17.45
2022-10-10T11:54:22.078Z,17.44
2022-10-10T11:55:22.065Z,17.42
2022-10-10T11:56:22.030Z,17.38
2022-10-10T11:57:22.000Z,17.38
2022-10-10T11:58:21.998Z,17.44
2022-10-10T11:59:22.010Z,17.36
2022-10-10T12:00:21.998Z,17.39
2022-10-10T12:01:21.969Z,17.46
2022-10-10T12:02:24.426Z,17.49
2022-10-10T12:03:22.966Z,17.52
2022-10-10T12:04:21.937Z,17.51
2022-10-10T12:05:21.994Z,17.56
2022-10-10T12:06:21.938Z,17.52
2022-10-10T12:07:21.899Z,17.54
2022-10-10T12:08:21.881Z,17.59
2022-10-10T12:09:21.883Z,17.56
2022-10-10T12:10:21.880Z,17.56
2022-10-10T12:11:21.866Z,17.59
2022-10-10T12:12:21.865Z,17.65
2022-10-10T12:13:21.857Z,17.63
2022-10-10T12:14:21.850Z,17.57
2022-10-10T12:15:21.814Z,17.65
2022-10-10T12:16:21.801Z,17.71
2022-10-10T12:17:21.799Z,17.72
2022-10-10T12:18:21.783Z,17.72
2022-10-10T12:19:21.770Z,17.68
2022-10-10T12:20:21.754Z,17.72
2022-10-10T12:21:21.813Z,17.74
2022-10-10T12:22:21.800Z,17.78
2022-10-10T12:23:21.745Z,17.80
2022-10-10T12:24:21.709Z,17.71
2022-10-10T12:25:21.707Z,17.78
2022-10-10T12:26:21.734Z,17.86
2022-10-10T12:27:21.673Z,17.78
2022-10-10T12:28:21.750Z,17.76
2022-10-10T12:29:21.670Z,17.79
2022-10-10T12:30:21.650Z,17.76
2022-10-10T12:31:21.638Z,17.76
2022-10-10T12:32:21.633Z,17.94
2022-10-10T12:33:21.633Z,17.97
2022-10-10T12:34:21.618Z,18.13
2022-10-10T12:35:21.588Z,18.04
2022-10-10T12:36:21.585Z,18.00
2022-10-10T12:37:21.571Z,18.04
2022-10-10T12:38:21.571Z,18.11
2022-10-10T12:39:21.569Z,18.01
2022-10-10T12:40:21.556Z,18.04
2022-10-10T12:41:21.567Z,18.03
2022-10-10T12:42:21.532Z,18.03
2022-10-10T12:43:21.503Z,18.23
2022-10-10T12:44:21.514Z,18.16
2022-10-10T12:45:21.489Z,18.22
2022-10-10T12:46:21.471Z,18.08
2022-10-10T12:47:21.505Z,18.01
2022-10-10T12:48:21.444Z,18.15
2022-10-10T12:49:21.461Z,18.18
2022-10-10T12:50:21.431Z,18.19
2022-10-10T12:51:21.438Z,18.16
2022-10-10T12:52:21.417Z,18.19
2022-10-10T12:53:21.395Z,18.16
2022-10-10T12:54:21.389Z,18.23
2022-10-10T12:55:21.372Z,18.22
2022-10-10T12:56:21.377Z,18.08
2022-10-10T12:57:21.350Z,18.00
2022-10-10T12:58:27.070Z,17.90
2022-10-10T12:59:22.390Z,17.95
2022-10-10T13:00:21.322Z,17.94
2022-10-10T13:01:21.367Z,18.07
2022-10-10T13:02:21.287Z,18.11
2022-10-10T13:03:21.284Z,18.18
2022-10-10T13:04:21.276Z,18.16